Time;durP1;ratioP1;P1;durP2;ratioP2;P2;SDS_P1;SDS_P2;PMS_P1;PMS_P2;Temp;Humidity;BMP_temperature;BMP_pressure;BME280_temperature;BME280_humidity;BME280_pressure;Samples;Min_cycle;Max_cycle;Signal;HPM_P1;HPM_P2
2023/08/22 00:01:36;;;;;;;2.10;2.00;;;25.20;91.90;;;;;;4919267;29;20483;-89
2023/08/22 00:04:04;;;;;;;5.57;1.90;;;25.20;91.90;;;;;;4918784;29;20942;-89
2023/08/22 00:06:31;;;;;;;2.40;2.20;;;25.20;91.90;;;;;;4919196;29;20461;-89
2023/08/22 00:08:58;;;;;;;2.20;2.10;;;25.20;91.90;;;;;;4918828;29;20444;-89
2023/08/22 00:11:24;;;;;;;1.80;1.70;;;25.20;91.90;;;;;;4918785;29;20444;-89
2023/08/22 00:13:52;;;;;;;2.30;2.10;;;25.20;92.20;;;;;;4919012;29;20530;-89
2023/08/22 00:16:20;;;;;;;1.90;1.80;;;25.20;91.90;;;;;;4918980;29;20575;-95
2023/08/22 00:18:47;;;;;;;1.93;1.83;;;25.20;91.80;;;;;;4918994;29;20538;-89
2023/08/22 00:21:13;;;;;;;2.27;2.07;;;25.20;91.80;;;;;;4918669;29;20524;-89
2023/08/22 00:23:40;;;;;;;1.57;1.40;;;25.20;91.80;;;;;;4918578;29;20529;-89
2023/08/22 00:26:07;;;;;;;1.80;1.70;;;25.20;91.80;;;;;;4918748;29;20452;-89
2023/08/22 00:28:34;;;;;;;1.50;1.40;;;25.20;91.80;;;;;;4918677;29;20440;-89
2023/08/22 00:31:02;;;;;;;2.43;2.23;;;25.20;91.80;;;;;;4918787;29;20448;-90
2023/08/22 00:33:29;;;;;;;2.90;2.50;;;25.20;92.20;;;;;;4918397;29;20448;-89
2023/08/22 00:35:55;;;;;;;1.90;1.80;;;25.20;91.80;;;;;;4918652;29;20542;-96
2023/08/22 00:38:22;;;;;;;1.80;1.70;;;25.20;91.80;;;;;;4918369;29;20532;-96
2023/08/22 00:40:49;;;;;;;1.97;1.87;;;25.20;91.80;;;;;;4918286;29;20444;-89
2023/08/22 00:43:16;;;;;;;1.80;1.70;;;25.20;91.80;;;;;;4918597;29;20495;-89
2023/08/22 00:45:44;;;;;;;1.40;1.30;;;25.20;91.80;;;;;;4918480;29;20483;-89
2023/08/22 00:48:12;;;;;;;1.93;1.77;;;25.20;91.80;;;;;;4918353;29;20446;-89
2023/08/22 00:50:39;;;;;;;2.30;2.13;;;25.20;91.80;;;;;;4918021;29;20527;-89
2023/08/22 00:53:07;;;;;;;2.33;2.13;;;25.20;91.80;;;;;;4918301;29;20448;-89
2023/08/22 00:55:34;;;;;;;2.10;2.00;;;25.20;91.80;;;;;;4917981;29;20450;-89
2023/08/22 00:58:01;;;;;;;2.03;1.93;;;25.10;91.80;;;;;;4917822;29;20940;-90
2023/08/22 01:00:28;;;;;;;2.20;2.00;;;25.10;91.80;;;;;;4918186;29;20470;-88
2023/08/22 01:02:54;;;;;;;2.07;1.87;;;25.10;91.80;;;;;;4917780;29;20494;-89
2023/08/22 01:05:26;;;;;;;1.77;1.67;;;25.10;91.80;;;;;;4917951;29;20965;-89
2023/08/22 01:07:59;;;;;;;1.70;1.60;;;25.10;91.70;;;;;;4917973;29;20851;-89
2023/08/22 01:10:32;;;;;;;2.30;2.10;;;25.10;91.70;;;;;;4918160;29;20443;-89
2023/08/22 01:13:04;;;;;;;2.23;2.03;;;25.10;91.70;;;;;;4917969;29;20440;-89
2023/08/22 01:15:35;;;;;;;2.87;1.90;;;25.10;91.70;;;;;;4918308;29;20467;-89
2023/08/22 01:18:04;;;;;;;2.07;1.97;;;25.20;91.80;;;;;;4917868;29;20506;-89
2023/08/22 01:20:32;;;;;;;1.80;1.70;;;25.10;91.70;;;;;;4917868;29;20443;-89
2023/08/22 01:23:01;;;;;;;1.87;1.77;;;25.10;92.10;;;;;;4917393;29;20491;-89
2023/08/22 01:25:29;;;;;;;2.00;1.90;;;25.10;91.70;;;;;;4917592;29;20814;-96
2023/08/22 01:28:08;;;;;;;2.13;2.03;;;25.10;91.70;;;;;;4917538;29;20454;-96
2023/08/22 01:30:43;;;;;;;2.07;1.80;;;25.10;91.70;;;;;;4917713;29;20447;-96
2023/08/22 01:33:16;;;;;;;1.90;1.80;;;25.10;91.70;;;;;;4917682;29;20784;-89
2023/08/22 01:35:46;;;;;;;2.23;1.90;;;25.10;91.70;;;;;;4917561;29;20510;-89
2023/08/22 01:38:15;;;;;;;1.87;1.77;;;25.10;91.70;;;;;;4917397;29;20435;-89
2023/08/22 01:40:42;;;;;;;1.60;1.50;;;25.10;91.70;;;;;;4917226;29;20491;-88
2023/08/22 01:43:09;;;;;;;1.97;1.87;;;25.10;91.70;;;;;;4917430;29;20487;-89
2023/08/22 01:45:36;;;;;;;2.10;1.97;;;25.10;91.70;;;;;;4917203;29;20463;-95
2023/08/22 01:48:03;;;;;;;2.20;1.57;;;25.10;91.70;;;;;;4917573;29;20447;-89
2023/08/22 01:50:30;;;;;;;1.60;1.50;;;25.10;91.70;;;;;;4917454;29;20542;-89
2023/08/22 01:52:57;;;;;;;3.60;2.47;;;25.10;91.70;;;;;;4917170;29;20455;-89
2023/08/22 01:55:25;;;;;;;1.80;1.70;;;25.10;91.70;;;;;;4917465;29;20794;-89
2023/08/22 01:57:52;;;;;;;2.20;2.00;;;25.10;91.70;;;;;;4917287;29;20458;-89
2023/08/22 02:00:19;;;;;;;1.80;1.70;;;25.10;91.70;;;;;;4917139;29;20447;-89
2023/08/22 02:02:46;;;;;;;1.70;1.60;;;25.10;91.70;;;;;;4917823;29;21012;-89
2023/08/22 02:05:13;;;;;;;1.87;1.77;;;25.10;91.70;;;;;;4917345;29;20554;-88
2023/08/22 02:07:41;;;;;;;1.87;1.77;;;25.10;91.70;;;;;;4917310;29;20445;-88
2023/08/22 02:10:08;;;;;;;3.13;1.80;;;25.10;91.70;;;;;;4917221;29;20801;-89
2023/08/22 02:12:36;;;;;;;1.73;1.63;;;25.10;91.70;;;;;;4918035;29;20470;-89
2023/08/22 02:15:03;;;;;;;1.90;1.80;;;25.20;91.80;;;;;;4916979;29;20471;-89
2023/08/22 02:17:30;;;;;;;1.87;1.77;;;25.10;91.70;;;;;;4916938;29;20448;-89
2023/08/22 02:19:57;;;;;;;2.00;1.90;;;25.10;91.70;;;;;;4916968;29;21035;-89
2023/08/22 02:22:23;;;;;;;2.20;2.00;;;25.10;91.70;;;;;;4917048;29;20503;-89
2023/08/22 02:24:50;;;;;;;1.97;1.87;;;25.10;91.70;;;;;;4917048;29;20565;-89
2023/08/22 02:27:17;;;;;;;1.70;1.60;;;25.10;91.70;;;;;;4916902;29;21023;-89
2023/08/22 02:29:45;;;;;;;2.17;1.60;;;25.20;91.70;;;;;;4917203;29;20444;-89
2023/08/22 02:32:12;;;;;;;1.80;1.70;;;25.10;91.70;;;;;;4917189;29;20448;-89
2023/08/22 02:34:39;;;;;;;3.10;2.00;;;25.10;91.70;;;;;;4917007;29;20450;-92
2023/08/22 02:37:06;;;;;;;2.20;2.07;;;25.10;91.70;;;;;;4917071;29;20780;-89
2023/08/22 02:39:33;;;;;;;2.03;1.93;;;25.10;91.70;;;;;;4916684;29;20540;-89
2023/08/22 02:41:59;;;;;;;2.00;1.90;;;25.10;91.70;;;;;;4917014;29;20450;-93
2023/08/22 02:44:26;;;;;;;2.17;1.93;;;25.10;91.70;;;;;;4916520;29;20477;-89
2023/08/22 02:46:55;;;;;;;2.30;2.10;;;25.10;91.70;;;;;;4917183;29;20478;-95
2023/08/22 02:49:21;;;;;;;1.90;1.80;;;25.10;91.70;;;;;;4916914;29;20849;-89
2023/08/22 02:51:48;;;;;;;2.00;1.90;;;25.10;91.70;;;;;;4916825;29;20454;-96
2023/08/22 02:54:15;;;;;;;1.77;1.67;;;25.10;91.70;;;;;;4919388;29;20533;-96
2023/08/22 02:56:42;;;;;;;2.23;2.03;;;25.10;91.70;;;;;;4920143;29;20443;-89
2023/08/22 02:59:09;;;;;;;2.13;1.93;;;25.10;91.70;;;;;;4920031;29;20449;-89
2023/08/22 03:01:36;;;;;;;1.80;1.70;;;25.10;91.70;;;;;;4920147;29;20446;-96
2023/08/22 03:04:05;;;;;;;1.80;1.70;;;25.10;91.70;;;;;;4920022;29;20491;-96
2023/08/22 03:06:31;;;;;;;2.00;1.60;;;25.10;91.70;;;;;;4920250;29;20530;-95
2023/08/22 03:08:58;;;;;;;1.70;1.60;;;25.10;91.70;;;;;;4920222;29;20454;-89
2023/08/22 03:11:25;;;;;;;2.00;1.90;;;25.10;91.70;;;;;;4920195;29;20534;-89
2023/08/22 03:13:52;;;;;;;2.00;1.80;;;25.10;91.60;;;;;;4920012;29;20443;-89
2023/08/22 03:16:19;;;;;;;2.07;1.97;;;25.10;91.60;;;;;;4920019;29;20443;-89
2023/08/22 03:18:45;;;;;;;2.20;2.10;;;25.10;91.70;;;;;;4920002;29;20942;-89
2023/08/22 03:21:14;;;;;;;2.03;1.80;;;25.10;91.60;;;;;;4920034;29;20447;-89
2023/08/22 03:23:41;;;;;;;2.40;1.83;;;25.10;91.60;;;;;;4920066;29;20510;-89
2023/08/22 03:26:10;;;;;;;3.00;1.97;;;25.10;91.60;;;;;;4919628;29;21010;-95
2023/08/22 03:28:37;;;;;;;1.80;1.70;;;25.10;91.60;;;;;;4901130;29;20444;-89
2023/08/22 03:31:04;;;;;;;2.00;1.90;;;25.10;91.60;;;;;;4900682;29;20460;-89
2023/08/22 03:33:31;;;;;;;2.20;2.00;;;25.10;91.60;;;;;;4900922;29;20447;-89
2023/08/22 03:35:59;;;;;;;2.37;2.10;;;25.10;91.60;;;;;;4900942;29;20808;-89
2023/08/22 03:38:27;;;;;;;1.97;1.87;;;25.10;91.60;;;;;;4900470;29;20546;-89
2023/08/22 03:40:56;;;;;;;1.83;1.73;;;25.10;91.60;;;;;;4901145;29;20459;-89
2023/08/22 03:43:23;;;;;;;2.20;2.10;;;25.10;91.60;;;;;;4900766;29;20501;-95
2023/08/22 03:45:50;;;;;;;1.80;1.70;;;25.10;91.60;;;;;;4900260;29;21040;-89
2023/08/22 03:48:17;;;;;;;2.03;1.93;;;25.10;91.60;;;;;;4900410;29;20445;-93
2023/08/22 03:50:44;;;;;;;1.80;1.67;;;25.10;91.60;;;;;;4900664;29;20535;-95
2023/08/22 03:53:12;;;;;;;2.23;2.03;;;25.10;91.60;;;;;;4900570;29;20443;-89
2023/08/22 03:55:40;;;;;;;2.30;2.20;;;25.10;91.60;;;;;;4900370;29;20445;-90
2023/08/22 03:58:07;;;;;;;1.80;1.70;;;25.10;91.60;;;;;;4900205;29;20448;-96
2023/08/22 04:00:34;;;;;;;2.10;2.00;;;25.10;91.60;;;;;;4900125;29;20958;-95
2023/08/22 04:03:01;;;;;;;1.83;1.73;;;25.10;91.60;;;;;;4900087;29;20493;-88
2023/08/22 04:05:28;;;;;;;2.23;2.03;;;25.10;91.60;;;;;;4903997;29;20535;-89
2023/08/22 04:07:55;;;;;;;1.93;1.53;;;25.10;91.60;;;;;;4918974;29;21034;-88
2023/08/22 04:10:22;;;;;;;1.80;1.70;;;25.10;91.60;;;;;;4918872;29;21014;-89
2023/08/22 04:12:50;;;;;;;1.80;1.70;;;25.10;91.60;;;;;;4919124;29;20454;-95
2023/08/22 04:15:17;;;;;;;2.53;2.10;;;25.10;91.60;;;;;;4918895;29;20459;-89
2023/08/22 04:17:44;;;;;;;2.40;2.20;;;25.00;91.50;;;;;;4918962;29;20967;-91
2023/08/22 04:20:12;;;;;;;2.17;1.97;;;24.90;91.60;;;;;;4918517;29;20455;-91
2023/08/22 04:22:41;;;;;;;2.37;2.17;;;25.20;91.60;;;;;;4918287;29;20541;-91
2023/08/22 04:25:09;;;;;;;2.30;2.20;;;25.00;91.40;;;;;;4918561;29;20484;-96
2023/08/22 04:27:35;;;;;;;2.07;1.87;;;25.00;91.30;;;;;;4918400;29;20531;-85
2023/08/22 04:30:04;;;;;;;2.60;2.17;;;25.00;91.50;;;;;;4918315;29;20448;-87
2023/08/22 04:32:31;;;;;;;5.20;2.70;;;25.00;91.40;;;;;;4918551;29;20541;-87
2023/08/22 04:34:58;;;;;;;5.40;3.40;;;25.00;90.80;;;;;;4918343;29;20867;-86
2023/08/22 04:37:24;;;;;;;8.63;3.93;;;25.00;90.30;;;;;;4918536;29;20447;-87
2023/08/22 04:39:51;;;;;;;3.73;3.43;;;24.90;90.40;;;;;;4918451;29;20448;-87
2023/08/22 04:42:18;;;;;;;4.70;3.60;;;24.80;90.50;;;;;;4918541;29;20450;-87
2023/08/22 04:44:45;;;;;;;6.40;3.60;;;24.70;90.70;;;;;;4917944;29;20505;-87
2023/08/22 04:47:13;;;;;;;10.47;3.80;;;24.60;90.80;;;;;;4918433;29;20531;-86
2023/08/22 04:49:40;;;;;;;4.97;4.33;;;24.50;91.00;;;;;;4917968;29;21153;-86
2023/08/22 04:52:07;;;;;;;5.60;4.80;;;24.50;91.20;;;;;;4918016;29;20829;-86
2023/08/22 04:54:34;;;;;;;6.27;3.80;;;24.40;91.20;;;;;;4917789;29;20461;-86
2023/08/22 04:57:01;;;;;;;8.43;3.90;;;24.40;91.30;;;;;;4918166;29;20939;-89
2023/08/22 04:59:28;;;;;;;7.37;4.80;;;24.40;91.50;;;;;;4918888;29;20888;-89
2023/08/22 05:01:54;;;;;;;5.53;4.33;;;24.40;91.40;;;;;;4917895;29;20455;-88
2023/08/22 05:04:23;;;;;;;6.47;4.63;;;24.30;91.40;;;;;;4917681;29;20575;-89
2023/08/22 05:06:49;;;;;;;7.90;4.10;;;24.30;91.50;;;;;;4917886;29;20457;-89
2023/08/22 05:09:17;;;;;;;6.07;4.30;;;24.20;91.50;;;;;;4918062;29;20868;-89
2023/08/22 05:11:45;;;;;;;7.67;4.40;;;24.20;91.50;;;;;;4917746;29;20515;-89
2023/08/22 05:14:12;;;;;;;7.50;4.40;;;24.10;91.50;;;;;;4917597;29;20481;-89
2023/08/22 05:16:39;;;;;;;4.10;3.80;;;24.10;91.60;;;;;;4916995;29;20506;-89
2023/08/22 05:19:06;;;;;;;4.73;4.10;;;24.10;91.60;;;;;;4918209;29;20451;-90
2023/08/22 05:21:35;;;;;;;5.97;4.40;;;24.00;91.60;;;;;;4920625;29;20942;-90
2023/08/22 05:24:01;;;;;;;9.07;4.13;;;24.00;91.70;;;;;;4918638;29;20499;-92
2023/08/22 05:26:28;;;;;;;5.90;4.60;;;24.00;91.60;;;;;;4918128;29;20457;-89
2023/08/22 05:28:55;;;;;;;9.03;4.27;;;24.00;91.70;;;;;;4918457;29;20518;-90
2023/08/22 05:31:22;;;;;;;10.60;4.50;;;24.00;91.70;;;;;;4918067;29;20463;-90
2023/08/22 05:33:50;;;;;;;8.93;4.53;;;24.00;91.80;;;;;;4912924;29;20554;-89
2023/08/22 05:36:17;;;;;;;5.57;4.03;;;24.00;91.80;;;;;;4918397;29;20531;-93
2023/08/22 05:38:45;;;;;;;6.90;3.87;;;23.90;91.80;;;;;;4917259;29;20450;-90
2023/08/22 05:41:13;;;;;;;6.13;4.70;;;23.90;92.20;;;;;;4917356;29;20475;-94
2023/08/22 05:43:40;;;;;;;4.33;3.93;;;24.00;91.90;;;;;;4917092;29;20486;-93
2023/08/22 05:46:07;;;;;;;7.33;4.30;;;24.00;92.00;;;;;;4917298;29;20456;-89
2023/08/22 05:48:33;;;;;;;4.77;4.30;;;24.00;92.10;;;;;;4917675;29;20962;-85
2023/08/22 05:51:02;;;;;;;9.00;3.83;;;24.00;92.10;;;;;;4917503;29;20465;-90
2023/08/22 05:53:29;;;;;;;5.27;4.33;;;24.10;92.20;;;;;;4917394;29;20974;-85
2023/08/22 05:55:57;;;;;;;4.70;4.30;;;24.10;92.20;;;;;;4917017;29;20536;-85
2023/08/22 05:58:24;;;;;;;7.90;3.70;;;24.10;92.30;;;;;;4917069;29;20446;-85
2023/08/22 06:00:51;;;;;;;5.73;4.90;;;24.10;92.40;;;;;;4917164;29;20450;-85
2023/08/22 06:03:18;;;;;;;5.30;4.90;;;24.10;92.50;;;;;;4917287;29;20813;-85
2023/08/22 06:05:45;;;;;;;5.80;4.47;;;24.10;92.60;;;;;;4917472;29;20451;-85
2023/08/22 06:08:12;;;;;;;6.03;5.30;;;24.20;92.70;;;;;;4916765;29;20533;-85
2023/08/22 06:10:38;;;;;;;7.77;5.73;;;24.20;92.70;;;;;;4917363;29;20446;-85
2023/08/22 06:13:07;;;;;;;9.73;5.87;;;24.20;92.80;;;;;;4918504;29;20964;-94
2023/08/22 06:15:34;;;;;;;8.03;6.40;;;24.20;92.80;;;;;;4917116;29;20474;-94
2023/08/22 06:18:01;;;;;;;7.23;5.80;;;24.40;93.00;;;;;;4919733;29;20546;-92
2023/08/22 06:20:27;;;;;;;6.80;5.00;;;24.30;93.10;;;;;;4917095;29;20527;-90
2023/08/22 06:22:54;;;;;;;9.37;6.17;;;24.30;93.10;;;;;;4920385;29;20463;-93
2023/08/22 06:25:21;;;;;;;9.40;6.60;;;24.30;93.00;;;;;;4922792;29;20514;-91
2023/08/22 06:27:48;;;;;;;9.80;6.80;;;24.30;92.90;;;;;;4922549;29;20450;-91
2023/08/22 06:30:16;;;;;;;6.77;6.17;;;24.40;93.00;;;;;;4922758;29;20464;-89
2023/08/22 06:32:43;;;;;;;13.63;7.30;;;24.40;93.00;;;;;;4923736;29;20461;-96
2023/08/22 06:35:10;;;;;;;11.13;6.73;;;24.40;93.00;;;;;;4922006;29;20949;-92
2023/08/22 06:37:36;;;;;;;10.67;6.57;;;24.40;93.00;;;;;;4923547;29;20534;-90
2023/08/22 06:40:08;;;;;;;7.87;6.90;;;24.50;93.00;;;;;;4920415;29;20546;-93
2023/08/22 06:42:35;;;;;;;8.10;7.30;;;24.50;93.00;;;;;;4923655;29;20922;-95
2023/08/22 06:45:02;;;;;;;12.83;7.70;;;24.50;93.00;;;;;;4920506;29;20896;-94
2023/08/22 06:47:30;;;;;;;9.77;6.47;;;24.50;92.90;;;;;;4921177;29;20467;-93
2023/08/22 06:49:57;;;;;;;7.73;5.43;;;24.50;92.80;;;;;;4920699;29;20474;-93
2023/08/22 06:52:30;;;;;;;11.67;5.70;;;24.60;92.80;;;;;;4921005;29;20998;-96
2023/08/22 06:54:57;;;;;;;8.43;5.30;;;24.60;92.70;;;;;;4919501;29;20458;-92
2023/08/22 06:57:24;;;;;;;10.50;5.87;;;24.70;92.60;;;;;;4920102;29;20448;-92
2023/08/22 06:59:50;;;;;;;5.67;5.00;;;24.70;92.50;;;;;;4920017;29;20541;-93
2023/08/22 07:02:17;;;;;;;4.53;4.13;;;24.70;92.40;;;;;;4920360;29;20447;-92
2023/08/22 07:04:45;;;;;;;5.00;4.60;;;24.70;92.40;;;;;;4919991;29;20913;-93
2023/08/22 07:07:12;;;;;;;5.23;4.73;;;24.80;92.80;;;;;;4920215;29;20446;-92
2023/08/22 07:09:39;;;;;;;6.00;4.73;;;24.80;92.40;;;;;;4920124;29;20534;-92
2023/08/22 07:12:11;;;;;;;6.40;4.60;;;24.80;92.40;;;;;;4920170;29;20541;-92
2023/08/22 07:14:42;;;;;;;5.03;4.50;;;24.80;92.40;;;;;;4919996;29;20549;-94
2023/08/22 07:17:08;;;;;;;3.50;3.10;;;24.80;92.30;;;;;;4920018;29;20447;-92
2023/08/22 07:19:37;;;;;;;5.63;4.53;;;24.90;92.30;;;;;;4920034;29;20459;-93
2023/08/22 07:22:05;;;;;;;4.03;3.70;;;24.90;92.20;;;;;;4919740;29;20487;-93
2023/08/22 07:24:32;;;;;;;7.50;4.67;;;24.90;92.20;;;;;;4919468;29;20506;-92
2023/08/22 07:26:59;;;;;;;5.40;4.60;;;24.90;92.20;;;;;;4919797;29;20479;-92
2023/08/22 07:29:26;;;;;;;4.93;4.43;;;24.90;92.20;;;;;;4919681;29;20454;-93
2023/08/22 07:31:58;;;;;;;5.40;4.63;;;25.00;92.20;;;;;;4920825;29;20869;-92
2023/08/22 07:34:25;;;;;;;5.20;4.10;;;25.00;92.20;;;;;;4919640;29;20448;-93
2023/08/22 07:36:51;;;;;;;4.47;3.57;;;25.00;92.20;;;;;;4919897;29;20533;-93
2023/08/22 07:39:20;;;;;;;4.80;4.10;;;25.00;92.20;;;;;;4918892;29;20453;-93
2023/08/22 07:41:47;;;;;;;4.27;3.87;;;25.00;92.20;;;;;;4919509;29;20456;-93
2023/08/22 07:44:14;;;;;;;4.80;3.73;;;25.00;92.20;;;;;;4919342;29;20491;-92
2023/08/22 07:46:41;;;;;;;4.63;4.30;;;25.00;92.20;;;;;;4919528;29;20538;-93
2023/08/22 07:49:08;;;;;;;5.30;4.70;;;25.00;92.20;;;;;;4919583;29;20541;-93
2023/08/22 07:51:36;;;;;;;5.13;3.60;;;25.00;92.20;;;;;;4919627;29;20539;-93
2023/08/22 07:54:03;;;;;;;4.77;3.83;;;25.00;92.30;;;;;;4919841;29;20450;-95
2023/08/22 07:56:46;;;;;;;4.13;3.70;;;25.10;92.30;;;;;;4919941;29;20486;-96
2023/08/22 07:59:14;;;;;;;6.20;4.00;;;25.10;92.40;;;;;;4918241;29;20506;-95
2023/08/22 08:01:41;;;;;;;5.57;3.63;;;25.10;92.40;;;;;;4919877;29;20479;-96
2023/08/22 08:04:08;;;;;;;4.27;3.90;;;25.10;92.40;;;;;;4919727;29;20582;-95
2023/08/22 08:06:35;;;;;;;4.07;3.70;;;25.10;92.80;;;;;;4920432;29;20499;-93
2023/08/22 08:09:04;;;;;;;5.80;3.90;;;25.20;92.40;;;;;;4919682;29;20534;-94
2023/08/22 08:11:31;;;;;;;5.17;3.90;;;25.20;92.40;;;;;;4918916;29;20458;-90
2023/08/22 08:13:59;;;;;;;3.90;3.60;;;25.20;92.40;;;;;;4918675;29;20468;-93
2023/08/22 08:16:26;;;;;;;5.40;4.00;;;25.20;92.40;;;;;;4919268;29;20448;-92
2023/08/22 08:18:54;;;;;;;3.80;3.50;;;25.20;92.40;;;;;;4921692;29;20904;-94
2023/08/22 08:21:21;;;;;;;3.60;3.30;;;25.20;92.40;;;;;;4919421;29;20455;-92
2023/08/22 08:23:48;;;;;;;4.00;3.40;;;25.20;92.40;;;;;;4918989;29;20485;-94
2023/08/22 08:26:15;;;;;;;4.30;3.90;;;25.30;92.40;;;;;;4919494;29;20479;-93
2023/08/22 08:28:48;;;;;;;4.30;3.83;;;25.30;92.40;;;;;;4919608;29;20455;-96
2023/08/22 08:34:00;;;;;;;3.60;3.40;;;25.40;92.40;;;;;;4917653;29;20443;-94
2023/08/22 08:36:33;;;;;;;3.73;3.43;;;25.40;92.40;;;;;;4944204;23;20500;-96
2023/08/22 08:39:00;;;;;;;4.00;2.90;;;25.40;92.40;;;;;;4939764;29;20493;-91
2023/08/22 08:42:03;;;;;;;3.80;3.50;;;25.40;92.30;;;;;;4939053;29;20459;-93
2023/08/22 08:44:33;;;;;;;3.73;2.97;;;25.40;92.30;;;;;;4939592;29;20582;-91
2023/08/22 08:47:02;;;;;;;4.70;3.30;;;25.40;92.30;;;;;;4937084;29;20447;-91
2023/08/22 08:49:31;;;;;;;3.20;3.00;;;25.40;92.30;;;;;;4937023;29;20458;-92
2023/08/22 08:52:01;;;;;;;3.47;3.17;;;25.40;92.30;;;;;;4937273;29;20866;-91
2023/08/22 08:54:29;;;;;;;3.70;3.40;;;25.50;92.30;;;;;;4937277;29;20454;-91
2023/08/22 08:56:56;;;;;;;2.90;2.70;;;25.50;92.30;;;;;;4937375;29;20480;-91
2023/08/22 08:59:23;;;;;;;3.17;2.87;;;25.50;92.30;;;;;;4936796;29;20443;-91
2023/08/22 09:01:51;;;;;;;3.50;3.20;;;25.50;92.30;;;;;;4937086;29;20534;-91
2023/08/22 09:04:19;;;;;;;2.93;2.73;;;25.50;92.30;;;;;;4936871;29;20486;-91
2023/08/22 09:06:47;;;;;;;2.60;2.40;;;25.50;92.30;;;;;;4937011;29;20438;-91
2023/08/22 09:09:15;;;;;;;3.37;3.10;;;25.60;92.30;;;;;;4937036;29;20443;-90
2023/08/22 09:11:43;;;;;;;3.20;2.90;;;25.60;92.30;;;;;;4936685;29;20453;-90
2023/08/22 09:14:10;;;;;;;4.53;3.10;;;25.60;92.20;;;;;;4936843;29;20474;-94
2023/08/22 09:16:38;;;;;;;2.60;2.40;;;25.60;92.20;;;;;;4936635;29;20459;-90
2023/08/22 09:19:06;;;;;;;2.93;2.67;;;25.60;92.30;;;;;;4936389;29;20972;-91
2023/08/22 09:21:34;;;;;;;3.50;3.20;;;25.60;92.30;;;;;;4936623;29;20450;-90
2023/08/22 09:24:08;;;;;;;4.50;3.33;;;25.60;92.20;;;;;;4936415;29;20450;-91
2023/08/22 09:26:35;;;;;;;3.03;2.83;;;25.70;92.30;;;;;;4936776;29;20447;-90
2023/08/22 09:29:06;;;;;;;3.40;2.83;;;25.60;92.20;;;;;;4936685;29;20447;-91
2023/08/22 09:31:35;;;;;;;3.00;2.70;;;25.70;92.20;;;;;;4936682;29;20439;-91
2023/08/22 09:34:09;;;;;;;3.80;3.00;;;25.70;92.20;;;;;;4936258;29;20533;-90
2023/08/22 09:36:45;;;;;;;3.37;3.00;;;25.70;92.20;;;;;;4936222;29;20483;-90
2023/08/22 09:39:15;;;;;;;2.73;2.53;;;25.70;92.20;;;;;;4936761;29;20442;-91
2023/08/22 09:41:42;;;;;;;3.33;3.03;;;25.70;92.20;;;;;;4936467;29;20510;-90
2023/08/22 09:44:11;;;;;;;3.00;2.70;;;25.70;92.20;;;;;;4936197;29;20462;-91
2023/08/22 09:46:40;;;;;;;2.90;2.70;;;25.70;92.20;;;;;;4936410;29;20877;-91
2023/08/22 09:49:10;;;;;;;2.90;2.70;;;25.70;92.20;;;;;;4936394;29;20450;-90
2023/08/22 09:51:41;;;;;;;3.13;2.90;;;25.70;92.20;;;;;;4936467;29;20530;-94
2023/08/22 09:54:08;;;;;;;2.67;2.33;;;25.70;92.20;;;;;;4936084;29;20454;-91
2023/08/22 09:56:35;;;;;;;2.80;2.60;;;25.80;92.20;;;;;;4936414;29;20883;-93
2023/08/22 10:02:24;;;;;;;2.93;2.70;;;25.70;91.70;;;;;;4936500;29;20456;-95
2023/08/22 10:04:52;;;;;;;2.70;2.50;;;25.70;91.70;;;;;;4938722;29;20817;-96
2023/08/22 10:07:36;;;;;;;2.57;2.17;;;25.70;91.70;;;;;;4943687;29;20467;-96
2023/08/22 10:10:23;;;;;;;3.13;2.83;;;25.70;91.70;;;;;;4943567;29;20814;-96
2023/08/22 10:19:21;;;;;;;2.63;2.43;;;25.60;91.70;;;;;;4820442;29;20434;-93
2023/08/22 10:21:48;;;;;;;2.60;2.40;;;25.60;91.80;;;;;;4917498;29;20459;-92
2023/08/22 10:24:29;;;;;;;2.60;2.40;;;25.60;91.80;;;;;;4918937;29;20530;-92
2023/08/22 10:27:02;;;;;;;2.80;2.60;;;25.60;91.80;;;;;;4919412;29;20864;-91
2023/08/22 10:29:33;;;;;;;2.33;2.17;;;25.60;92.20;;;;;;4920655;29;20455;-93
2023/08/22 10:32:23;;;;;;;2.80;2.47;;;25.60;91.80;;;;;;4922292;29;20431;-90
2023/08/22 10:35:17;;;;;;;3.80;2.83;;;25.60;91.80;;;;;;4921512;29;20444;-95
2023/08/22 10:37:50;;;;;;;2.60;2.40;;;25.40;91.70;;;;;;4917334;29;20443;-94
2023/08/22 10:43:13;;;;;;;2.27;2.17;;;25.60;91.80;;;;;;4917917;29;20931;-94
2023/08/22 10:45:50;;;;;;;2.20;2.00;;;25.60;91.80;;;;;;4917480;29;20577;-94
2023/08/22 10:48:22;;;;;;;2.53;2.33;;;25.60;91.70;;;;;;4917702;29;20546;-94
2023/08/22 10:50:51;;;;;;;2.60;2.40;;;25.60;91.80;;;;;;4917299;29;20534;-94
2023/08/22 10:53:24;;;;;;;2.33;2.13;;;25.60;91.80;;;;;;4917796;29;20455;-92
2023/08/22 10:55:53;;;;;;;2.30;2.10;;;25.60;91.80;;;;;;4918034;29;20468;-91
2023/08/22 11:01:17;;;;;;;2.30;2.10;;;25.60;92.10;;;;;;5005359;23;20486;-96
2023/08/22 11:07:34;;;;;;;2.30;2.10;;;25.70;91.80;;;;;;4941484;29;20426;-94
2023/08/22 11:10:01;;;;;;;2.33;2.13;;;25.70;91.80;;;;;;4941561;29;20513;-90
2023/08/22 11:12:29;;;;;;;1.97;1.83;;;25.70;91.80;;;;;;4937147;29;20457;-96
2023/08/22 11:14:57;;;;;;;1.97;1.77;;;25.70;91.80;;;;;;4939358;29;20829;-96
2023/08/22 11:17:25;;;;;;;2.40;2.20;;;25.70;91.70;;;;;;4939431;29;20485;-91
2023/08/22 11:19:54;;;;;;;3.40;2.20;;;25.70;91.60;;;;;;4939803;29;20455;-91
2023/08/22 11:22:21;;;;;;;2.03;1.83;;;25.80;91.80;;;;;;4939025;29;20835;-91
2023/08/22 11:24:51;;;;;;;2.00;1.80;;;25.80;91.80;;;;;;4939048;29;20447;-91
2023/08/22 11:27:19;;;;;;;2.30;2.10;;;25.80;91.60;;;;;;4940279;29;20447;-96
2023/08/22 11:29:50;;;;;;;1.90;1.80;;;25.80;91.60;;;;;;4939484;29;20791;-96
2023/08/22 11:32:21;;;;;;;2.10;2.00;;;25.80;91.60;;;;;;4939170;29;20455;-91
2023/08/22 11:34:49;;;;;;;2.10;1.83;;;25.90;91.70;;;;;;4939714;29;20443;-96
2023/08/22 11:37:16;;;;;;;2.00;1.90;;;25.90;91.60;;;;;;4938709;29;20749;-91
2023/08/22 11:39:47;;;;;;;2.20;2.00;;;25.90;91.60;;;;;;4939479;29;20450;-91
2023/08/22 11:42:16;;;;;;;3.43;2.10;;;25.90;91.60;;;;;;4939655;29;20915;-91
2023/08/22 11:44:59;;;;;;;1.97;1.70;;;25.90;91.70;;;;;;4939224;29;20473;-91
2023/08/22 11:47:36;;;;;;;2.33;1.90;;;25.90;91.70;;;;;;4939231;29;20451;-91
2023/08/22 11:50:06;;;;;;;2.20;2.00;;;25.90;91.60;;;;;;4941365;29;20441;-92
2023/08/22 11:52:34;;;;;;;2.03;1.83;;;25.90;91.60;;;;;;4949665;29;20472;-91
2023/08/22 11:55:24;;;;;;;1.97;1.87;;;25.90;91.60;;;;;;4923931;29;20469;-96
2023/08/22 11:57:54;;;;;;;2.47;1.80;;;25.90;91.50;;;;;;4919995;29;20848;-95
2023/08/22 12:04:00;;;;;;;3.00;1.93;;;25.80;91.50;;;;;;4918447;29;20469;-96
2023/08/22 12:06:29;;;;;;;1.73;1.63;;;25.70;91.70;;;;;;4919401;29;20560;-95
2023/08/22 12:09:03;;;;;;;1.73;1.60;;;25.80;91.60;;;;;;4919753;29;20497;-95
2023/08/22 12:11:30;;;;;;;2.13;1.93;;;25.90;91.60;;;;;;4920225;29;20502;-95
2023/08/22 12:13:57;;;;;;;2.17;1.97;;;25.90;91.60;;;;;;4919591;29;20472;-95
2023/08/22 12:16:28;;;;;;;1.80;1.70;;;25.90;91.50;;;;;;4919683;29;20447;-95
2023/08/22 12:18:56;;;;;;;2.30;2.10;;;25.90;91.40;;;;;;4920179;29;20495;-95
2023/08/22 12:21:23;;;;;;;1.90;1.70;;;25.90;91.50;;;;;;4919665;29;20528;-96
2023/08/22 12:23:50;;;;;;;1.80;1.70;;;25.90;91.50;;;;;;4919454;29;20545;-95
2023/08/22 12:26:23;;;;;;;2.23;1.60;;;25.80;91.40;;;;;;4918595;29;20586;-95
2023/08/22 12:28:50;;;;;;;1.90;1.80;;;25.90;91.40;;;;;;4919449;29;20526;-96
2023/08/22 12:31:20;;;;;;;2.03;1.60;;;25.90;91.40;;;;;;4918962;29;20542;-96
2023/08/22 12:33:47;;;;;;;1.77;1.67;;;26.00;91.40;;;;;;4919424;29;20555;-95
2023/08/22 12:36:17;;;;;;;2.00;1.80;;;25.90;91.30;;;;;;4919254;29;20456;-96
2023/08/22 12:38:44;;;;;;;1.50;1.40;;;25.80;91.30;;;;;;4919616;29;21004;-95
2023/08/22 12:41:11;;;;;;;1.73;1.63;;;26.00;91.50;;;;;;4919029;29;20458;-95
2023/08/22 12:44:04;;;;;;;2.47;2.27;;;26.00;91.50;;;;;;4930064;29;20467;-96
2023/08/22 12:46:31;;;;;;;2.57;1.90;;;26.00;91.30;;;;;;4910966;29;20493;-96
2023/08/22 12:48:58;;;;;;;1.90;1.80;;;26.00;91.40;;;;;;4919174;29;20539;-96
2023/08/22 12:51:27;;;;;;;2.30;2.10;;;26.10;91.30;;;;;;4918651;29;20455;-96
2023/08/22 12:53:53;;;;;;;3.40;2.20;;;26.00;91.30;;;;;;4919830;29;20863;-96
2023/08/22 12:56:27;;;;;;;2.00;1.80;;;26.00;91.40;;;;;;4919196;29;20456;-95
2023/08/22 12:58:54;;;;;;;2.53;2.23;;;26.00;91.40;;;;;;4921851;29;20450;-93
2023/08/22 13:01:21;;;;;;;2.17;1.70;;;26.00;91.70;;;;;;4918511;29;20851;-92
2023/08/22 13:03:48;;;;;;;2.57;2.30;;;26.00;91.80;;;;;;4917793;29;20550;-92
2023/08/22 13:06:15;;;;;;;2.13;1.93;;;25.80;91.80;;;;;;4918319;29;20499;-91
2023/08/22 13:08:43;;;;;;;2.73;1.90;;;26.00;91.80;;;;;;4918043;29;20451;-92
2023/08/22 13:11:10;;;;;;;1.73;1.63;;;26.10;91.80;;;;;;4917924;29;20794;-93
2023/08/22 13:13:38;;;;;;;4.63;1.87;;;26.10;91.80;;;;;;4917998;29;20536;-94
2023/08/22 13:16:05;;;;;;;2.87;1.90;;;26.10;91.80;;;;;;4918219;29;20443;-92
2023/08/22 13:18:35;;;;;;;1.80;1.70;;;26.10;91.80;;;;;;4917891;29;20452;-92